Time;durP1;ratioP1;P1;durP2;ratioP2;P2;SDS_P1;SDS_P2;PMS_P1;PMS_P2;Temp;Humidity;BMP_temperature;BMP_pressure;BME280_temperature;BME280_humidity;BME280_pressure;Samples;Min_cycle;Max_cycle;Signal;HPM_P1;HPM_P2
2024/04/12 00:01:18;;;;;;;3.45;3.15;;;;;;;;;;5446488;26;20237;-85
2024/04/12 00:03:52;;;;;;;5.43;3.33;;;;;;;;;;5450781;26;20232;-85
2024/04/12 00:06:20;;;;;;;3.42;3.13;;;;;;;;;;5446743;26;20236;-86
2024/04/12 00:08:49;;;;;;;5.93;2.85;;;;;;;;;;5446350;26;20602;-86
2024/04/12 00:11:17;;;;;;;5.00;3.22;;;;;;;;;;5451455;26;20346;-85
2024/04/12 00:13:46;;;;;;;5.90;3.40;;;;;;;;;;5460691;26;20232;-86
2024/04/12 00:16:16;;;;;;;3.97;3.67;;;;;;;;;;5466259;26;20696;-85
2024/04/12 00:18:47;;;;;;;4.70;4.22;;;;;;;;;;5481191;26;20332;-86
2024/04/12 00:21:16;;;;;;;5.72;3.72;;;;;;;;;;5474153;26;20240;-85
2024/04/12 00:23:45;;;;;;;4.53;3.47;;;;;;;;;;5472745;26;20329;-85
2024/04/12 00:26:12;;;;;;;5.78;3.45;;;;;;;;;;5454574;26;20878;-85
2024/04/12 00:28:41;;;;;;;3.72;3.30;;;;;;;;;;5484453;26;20224;-85
2024/04/12 00:31:13;;;;;;;3.30;2.70;;;;;;;;;;5452983;26;20268;-85
2024/04/12 00:33:42;;;;;;;6.03;3.22;;;;;;;;;;5449580;26;20273;-85
2024/04/12 00:36:12;;;;;;;3.78;2.70;;;;;;;;;;5456370;26;20770;-85
2024/04/12 00:38:46;;;;;;;3.80;3.50;;;;;;;;;;5470264;26;20241;-85
2024/04/12 00:41:18;;;;;;;3.40;2.88;;;;;;;;;;5449929;26;20619;-85
2024/04/12 00:43:52;;;;;;;5.25;3.00;;;;;;;;;;5449803;26;20253;-86
2024/04/12 00:46:23;;;;;;;6.03;3.90;;;;;;;;;;5458074;26;20228;-85
2024/04/12 00:48:54;;;;;;;4.40;3.17;;;;;;;;;;5460129;26;20871;-86
2024/04/12 00:51:24;;;;;;;3.65;3.35;;;;;;;;;;5461819;26;20234;-85
2024/04/12 00:53:58;;;;;;;3.20;3.00;;;;;;;;;;5480865;26;20252;-85
2024/04/12 00:56:27;;;;;;;3.78;3.47;;;;;;;;;;5481396;26;20228;-85
2024/04/12 00:58:56;;;;;;;3.97;3.50;;;;;;;;;;5455118;26;20723;-85
2024/04/12 01:01:25;;;;;;;4.10;3.28;;;;;;;;;;5457827;26;20264;-85
2024/04/12 01:03:55;;;;;;;5.68;3.60;;;;;;;;;;5482869;26;20240;-85
2024/04/12 01:06:24;;;;;;;4.10;2.70;;;;;;;;;;5464612;26;20241;-85
2024/04/12 01:08:57;;;;;;;6.32;3.35;;;;;;;;;;5462644;26;20228;-85
2024/04/12 01:11:25;;;;;;;6.20;3.75;;;;;;;;;;5485117;26;20235;-85
2024/04/12 01:13:56;;;;;;;5.93;3.63;;;;;;;;;;5452902;26;20245;-85
2024/04/12 01:16:23;;;;;;;3.33;3.03;;;;;;;;;;5455340;26;20320;-85
2024/04/12 01:18:55;;;;;;;3.22;2.90;;;;;;;;;;5476506;26;20267;-85
2024/04/12 01:21:21;;;;;;;5.65;3.50;;;;;;;;;;5459080;26;20240;-85
2024/04/12 01:23:53;;;;;;;5.97;4.25;;;;;;;;;;5485847;26;20236;-85
2024/04/12 01:26:23;;;;;;;4.22;3.28;;;;;;;;;;5492285;26;20229;-85
2024/04/12 01:28:54;;;;;;;7.22;3.28;;;;;;;;;;5504431;26;20250;-85
2024/04/12 01:31:20;;;;;;;11.93;3.80;;;;;;;;;;5488275;26;20281;-85
2024/04/12 01:33:52;;;;;;;5.07;3.13;;;;;;;;;;5491272;26;20284;-85
2024/04/12 01:36:21;;;;;;;12.30;3.50;;;;;;;;;;5482784;26;20224;-85
2024/04/12 01:38:53;;;;;;;8.52;3.78;;;;;;;;;;5478888;26;20319;-84
2024/04/12 01:41:24;;;;;;;8.05;4.20;;;;;;;;;;5464586;26;20233;-85
2024/04/12 01:43:59;;;;;;;4.70;3.40;;;;;;;;;;5447639;26;20233;-85
2024/04/12 01:46:27;;;;;;;3.67;3.30;;;;;;;;;;5457967;26;20762;-85
2024/04/12 01:48:57;;;;;;;3.83;3.47;;;;;;;;;;5464558;26;20244;-85
2024/04/12 01:51:25;;;;;;;3.70;3.38;;;;;;;;;;5483346;26;20791;-85
2024/04/12 01:53:54;;;;;;;3.50;3.30;;;;;;;;;;5458135;26;20277;-84
2024/04/12 01:56:21;;;;;;;4.38;3.42;;;;;;;;;;5455137;26;20289;-84
2024/04/12 01:58:54;;;;;;;4.80;3.30;;;;;;;;;;5455859;26;20815;-83
2024/04/12 02:01:22;;;;;;;6.47;3.47;;;;;;;;;;5474789;26;21071;-83
2024/04/12 02:03:51;;;;;;;3.22;3.00;;;;;;;;;;5457495;26;20245;-84
2024/04/12 02:06:18;;;;;;;5.53;3.47;;;;;;;;;;5449631;26;20264;-85
2024/04/12 02:08:48;;;;;;;3.55;3.35;;;;;;;;;;5460018;26;20249;-84
2024/04/12 02:11:22;;;;;;;9.25;3.95;;;;;;;;;;5453201;26;20304;-83
2024/04/12 02:13:54;;;;;;;10.30;7.68;;;;;;;;;;5482114;26;20239;-84
2024/04/12 02:16:20;;;;;;;62.88;48.30;;;;;;;;;;5464129;26;20720;-84
2024/04/12 02:18:49;;;;;;;40.45;27.23;;;;;;;;;;5467124;26;20308;-83
2024/04/12 02:21:16;;;;;;;7.55;6.80;;;;;;;;;;5451331;26;20687;-83
2024/04/12 02:23:45;;;;;;;8.38;7.68;;;;;;;;;;5468939;26;20249;-84
2024/04/12 02:26:11;;;;;;;9.55;3.65;;;;;;;;;;5461093;26;20259;-83
2024/04/12 02:28:42;;;;;;;15.73;8.93;;;;;;;;;;5478434;26;20276;-83
2024/04/12 02:31:12;;;;;;;20.60;12.80;;;;;;;;;;5485363;26;20581;-83
2024/04/12 02:33:42;;;;;;;81.88;53.92;;;;;;;;;;5476683;26;20687;-83
2024/04/12 02:36:11;;;;;;;6.70;5.28;;;;;;;;;;5451236;26;20799;-83
2024/04/12 02:38:41;;;;;;;17.77;9.02;;;;;;;;;;5448963;26;20230;-82
2024/04/12 02:41:13;;;;;;;5.72;5.22;;;;;;;;;;5449115;26;20355;-84
2024/04/12 02:43:42;;;;;;;8.57;4.45;;;;;;;;;;5460667;26;20245;-83
2024/04/12 02:46:11;;;;;;;8.82;7.05;;;;;;;;;;5472237;26;20279;-83
2024/04/12 02:48:43;;;;;;;4.70;4.30;;;;;;;;;;5454967;26;20237;-83
2024/04/12 02:51:13;;;;;;;10.48;3.75;;;;;;;;;;5448984;26;20318;-85
2024/04/12 02:53:42;;;;;;;6.43;3.90;;;;;;;;;;5449305;26;20244;-83
2024/04/12 02:56:09;;;;;;;3.38;3.10;;;;;;;;;;5450266;26;20233;-83
2024/04/12 02:58:41;;;;;;;4.50;3.10;;;;;;;;;;5475819;26;20637;-83
2024/04/12 03:01:08;;;;;;;3.83;2.90;;;;;;;;;;5463304;26;20264;-83
2024/04/12 03:03:45;;;;;;;3.95;3.58;;;;;;;;;;5455635;26;20275;-83
2024/04/12 03:06:12;;;;;;;3.88;3.30;;;;;;;;;;5482048;26;20231;-83
2024/04/12 03:08:43;;;;;;;4.53;3.63;;;;;;;;;;5497105;26;20267;-83
2024/04/12 03:11:14;;;;;;;4.18;3.20;;;;;;;;;;5482512;26;20322;-83
2024/04/12 03:13:46;;;;;;;8.07;3.22;;;;;;;;;;5481695;26;20322;-82
2024/04/12 03:16:13;;;;;;;4.97;3.70;;;;;;;;;;5492927;26;20266;-83
2024/04/12 03:18:47;;;;;;;8.23;4.20;;;;;;;;;;5478959;26;20240;-83
2024/04/12 03:21:14;;;;;;;4.00;3.50;;;;;;;;;;5468806;26;20659;-82
2024/04/12 03:24:04;;;;;;;4.82;3.45;;;;;;;;;;5482604;26;20263;-82
2024/04/12 03:26:49;;;;;;;9.13;4.57;;;;;;;;;;5489969;26;20300;-82
2024/04/12 03:29:19;;;;;;;7.90;4.70;;;;;;;;;;5496073;26;20779;-83
2024/04/12 03:31:46;;;;;;;16.75;7.75;;;;;;;;;;5457135;26;20696;-83
2024/04/12 03:34:18;;;;;;;5.93;5.10;;;;;;;;;;5460420;26;20241;-82
2024/04/12 03:36:56;;;;;;;5.25;4.07;;;;;;;;;;5457248;26;20233;-83
2024/04/12 03:39:34;;;;;;;5.20;3.83;;;;;;;;;;5447553;26;20241;-82
2024/04/12 03:42:04;;;;;;;4.82;3.70;;;;;;;;;;5446729;26;20233;-83
2024/04/12 03:44:33;;;;;;;7.45;4.35;;;;;;;;;;5481333;26;20232;-83
2024/04/12 03:47:01;;;;;;;10.25;5.18;;;;;;;;;;5474452;26;20236;-83
2024/04/12 03:49:34;;;;;;;6.75;4.05;;;;;;;;;;5455407;26;20244;-83
2024/04/12 03:52:04;;;;;;;5.30;4.20;;;;;;;;;;5483247;26;20723;-83
2024/04/12 03:54:34;;;;;;;9.90;3.45;;;;;;;;;;5451746;26;20241;-83
2024/04/12 03:57:06;;;;;;;10.30;3.95;;;;;;;;;;5484221;26;20586;-83
2024/04/12 03:59:36;;;;;;;7.63;3.85;;;;;;;;;;5452682;26;20252;-82
2024/04/12 04:02:09;;;;;;;4.28;3.10;;;;;;;;;;5478948;26;20225;-83
2024/04/12 04:04:44;;;;;;;4.82;3.75;;;;;;;;;;5480620;26;20272;-83
2024/04/12 04:07:14;;;;;;;7.25;4.10;;;;;;;;;;5451616;26;20255;-82
2024/04/12 04:09:42;;;;;;;5.95;4.82;;;;;;;;;;5456586;26;20250;-83
2024/04/12 04:12:14;;;;;;;9.00;4.45;;;;;;;;;;5488173;26;20225;-85
2024/04/12 04:14:47;;;;;;;6.63;4.45;;;;;;;;;;5443591;26;20749;-83
2024/04/12 04:17:18;;;;;;;6.35;4.35;;;;;;;;;;5425439;26;20839;-83
2024/04/12 04:19:51;;;;;;;6.75;4.60;;;;;;;;;;5414301;26;21000;-83
2024/04/12 04:22:39;;;;;;;3.78;3.42;;;;;;;;;;5414850;26;20261;-83
2024/04/12 04:25:07;;;;;;;5.18;4.68;;;;;;;;;;5423843;26;20334;-83
2024/04/12 04:27:37;;;;;;;7.03;5.25;;;;;;;;;;5438009;26;20293;-84
2024/04/12 04:30:05;;;;;;;8.32;4.32;;;;;;;;;;5415227;26;20330;-83
2024/04/12 04:32:34;;;;;;;3.70;3.40;;;;;;;;;;5422320;26;20292;-83
2024/04/12 04:35:08;;;;;;;6.20;4.13;;;;;;;;;;5414379;26;20246;-83
2024/04/12 04:37:39;;;;;;;4.30;3.53;;;;;;;;;;5432890;26;20451;-83
2024/04/12 04:40:11;;;;;;;6.50;4.70;;;;;;;;;;5436504;26;20225;-83
2024/04/12 04:42:43;;;;;;;14.18;5.07;;;;;;;;;;5438596;26;20246;-83
2024/04/12 04:45:09;;;;;;;4.50;4.15;;;;;;;;;;5416809;26;20268;-83
2024/04/12 04:47:40;;;;;;;4.50;4.10;;;;;;;;;;5433868;26;20234;-83
2024/04/12 04:50:09;;;;;;;4.45;4.05;;;;;;;;;;5414426;26;20261;-83
2024/04/12 04:52:39;;;;;;;4.28;3.90;;;;;;;;;;5424961;26;20397;-81
2024/04/12 04:55:07;;;;;;;4.35;3.88;;;;;;;;;;5447740;26;20272;-83
2024/04/12 04:57:38;;;;;;;4.60;4.20;;;;;;;;;;5444931;26;20245;-88
2024/04/12 05:00:06;;;;;;;5.13;4.13;;;;;;;;;;5445663;26;20827;-87
2024/04/12 05:02:35;;;;;;;4.55;4.15;;;;;;;;;;5439632;26;20246;-88
2024/04/12 05:05:04;;;;;;;9.27;4.60;;;;;;;;;;5444796;26;20226;-87
2024/04/12 05:07:36;;;;;;;7.38;4.03;;;;;;;;;;5436936;26;20242;-83
2024/04/12 05:10:09;;;;;;;4.57;4.18;;;;;;;;;;5413691;26;20261;-83
2024/04/12 05:12:40;;;;;;;6.88;4.20;;;;;;;;;;5420595;26;20284;-89
2024/04/12 05:15:30;;;;;;;6.10;5.50;;;;;;;;;;5450243;26;20237;-85
2024/04/12 05:18:03;;;;;;;6.60;4.97;;;;;;;;;;5456502;26;20287;-88
2024/04/12 05:20:38;;;;;;;5.05;4.57;;;;;;;;;;5483071;26;20243;-86
2024/04/12 05:23:08;;;;;;;6.15;4.50;;;;;;;;;;5486287;26;20703;-84
2024/04/12 05:25:40;;;;;;;4.75;4.35;;;;;;;;;;5468986;26;20764;-82
2024/04/12 05:28:06;;;;;;;7.43;5.60;;;;;;;;;;5449629;26;20236;-83
2024/04/12 05:30:36;;;;;;;8.90;5.75;;;;;;;;;;5465246;26;20622;-85
2024/04/12 05:33:04;;;;;;;12.77;7.60;;;;;;;;;;5452439;26;20322;-87
2024/04/12 05:35:37;;;;;;;8.50;6.40;;;;;;;;;;5450336;26;21077;-85
2024/04/12 05:38:10;;;;;;;10.32;7.10;;;;;;;;;;5450375;26;20779;-87
2024/04/12 05:40:45;;;;;;;17.77;12.73;;;;;;;;;;5477502;26;20232;-84
2024/04/12 05:43:14;;;;;;;9.45;8.50;;;;;;;;;;5462510;26;20880;-83
2024/04/12 05:45:44;;;;;;;10.25;6.28;;;;;;;;;;5467527;26;20238;-83
2024/04/12 05:48:13;;;;;;;14.57;5.88;;;;;;;;;;5452249;26;20736;-83
2024/04/12 05:50:42;;;;;;;15.95;6.07;;;;;;;;;;5475287;26;20252;-85
2024/04/12 05:53:15;;;;;;;8.90;5.60;;;;;;;;;;5477376;26;20228;-83
2024/04/12 05:55:52;;;;;;;6.32;5.68;;;;;;;;;;5479401;26;20248;-80
2024/04/12 05:58:23;;;;;;;7.90;5.95;;;;;;;;;;5458912;26;20554;-84
2024/04/12 06:00:56;;;;;;;6.47;5.75;;;;;;;;;;5487414;26;20263;-84
2024/04/12 06:03:25;;;;;;;12.02;6.00;;;;;;;;;;5456588;26;20285;-85
2024/04/12 06:05:57;;;;;;;10.55;6.32;;;;;;;;;;5459142;26;20313;-85
2024/04/12 06:08:29;;;;;;;6.75;6.15;;;;;;;;;;5450249;26;20502;-82
2024/04/12 06:10:58;;;;;;;9.38;6.10;;;;;;;;;;5456854;26;20277;-83
2024/04/12 06:13:25;;;;;;;11.68;6.18;;;;;;;;;;5452592;26;20229;-82
2024/04/12 06:15:55;;;;;;;6.78;6.00;;;;;;;;;;5475114;26;20336;-82
2024/04/12 06:18:23;;;;;;;6.18;5.45;;;;;;;;;;5485899;26;20228;-82
2024/04/12 06:20:52;;;;;;;6.63;5.72;;;;;;;;;;5484064;26;20236;-83
2024/04/12 06:23:19;;;;;;;5.20;4.68;;;;;;;;;;5485346;26;20279;-82
2024/04/12 06:25:51;;;;;;;7.15;5.35;;;;;;;;;;5482566;26;20335;-82
2024/04/12 06:28:19;;;;;;;6.65;5.28;;;;;;;;;;5482264;26;20349;-83
2024/04/12 06:30:54;;;;;;;5.72;5.22;;;;;;;;;;5484929;26;20282;-82
2024/04/12 06:33:22;;;;;;;6.15;5.07;;;;;;;;;;5483850;26;20307;-82
2024/04/12 06:35:52;;;;;;;8.20;4.57;;;;;;;;;;5485324;26;20293;-82
2024/04/12 06:38:22;;;;;;;6.22;4.60;;;;;;;;;;5485137;26;20260;-82
2024/04/12 06:40:55;;;;;;;8.15;4.70;;;;;;;;;;5484639;26;20216;-82
2024/04/12 06:43:22;;;;;;;7.72;5.78;;;;;;;;;;5485121;26;20763;-82
2024/04/12 06:46:00;;;;;;;5.90;4.55;;;;;;;;;;5485494;26;20254;-82
2024/04/12 06:48:27;;;;;;;4.88;4.47;;;;;;;;;;5485252;26;20747;-83
2024/04/12 06:50:58;;;;;;;11.02;4.97;;;;;;;;;;5464486;26;20237;-82
2024/04/12 06:53:24;;;;;;;5.40;3.90;;;;;;;;;;5449309;26;20731;-81
2024/04/12 06:56:05;;;;;;;7.35;5.05;;;;;;;;;;5449058;26;20229;-82
2024/04/12 06:58:31;;;;;;;11.18;4.30;;;;;;;;;;5449087;26;20317;-83
2024/04/12 07:01:05;;;;;;;7.72;4.85;;;;;;;;;;5449245;26;20285;-82
2024/04/12 07:03:33;;;;;;;6.07;4.73;;;;;;;;;;5451018;26;20263;-83
2024/04/12 07:06:02;;;;;;;7.90;5.10;;;;;;;;;;5450428;26;20542;-82
2024/04/12 07:08:28;;;;;;;9.40;5.20;;;;;;;;;;5460966;26;20693;-83
2024/04/12 07:11:06;;;;;;;4.40;4.00;;;;;;;;;;5486768;26;20530;-82
2024/04/12 07:13:33;;;;;;;8.47;4.47;;;;;;;;;;5487532;26;20980;-83
2024/04/12 07:16:03;;;;;;;12.03;5.00;;;;;;;;;;5488529;26;20529;-84
2024/04/12 07:18:29;;;;;;;5.63;4.30;;;;;;;;;;5488653;26;20578;-82
2024/04/12 07:21:14;;;;;;;4.77;4.30;;;;;;;;;;5463488;26;20575;-82
2024/04/12 07:23:50;;;;;;;5.50;4.30;;;;;;;;;;5457087;26;20590;-83
2024/04/12 07:26:29;;;;;;;4.63;4.10;;;;;;;;;;5473041;26;20607;-83
2024/04/12 07:28:58;;;;;;;6.30;4.60;;;;;;;;;;5491550;26;20602;-84
2024/04/12 07:31:30;;;;;;;7.77;6.13;;;;;;;;;;5497161;26;20570;-81
2024/04/12 07:33:59;;;;;;;8.20;5.00;;;;;;;;;;5501314;26;20570;-82
2024/04/12 07:36:30;;;;;;;4.50;4.10;;;;;;;;;;5497978;26;20603;-82
2024/04/12 07:39:01;;;;;;;5.23;4.27;;;;;;;;;;5493079;26;21014;-83
2024/04/12 07:41:37;;;;;;;4.60;4.33;;;;;;;;;;5494077;26;20640;-86
2024/04/12 07:44:04;;;;;;;6.37;4.80;;;;;;;;;;5493868;26;20626;-81
2024/04/12 07:46:33;;;;;;;5.97;5.47;;;;;;;;;;5491599;26;20558;-82
2024/04/12 07:49:00;;;;;;;6.87;5.80;;;;;;;;;;5491310;26;21108;-82
2024/04/12 07:51:31;;;;;;;5.10;4.67;;;;;;;;;;5491947;26;20582;-82
2024/04/12 07:54:03;;;;;;;5.37;4.87;;;;;;;;;;5489970;26;20624;-82
2024/04/12 07:56:37;;;;;;;10.60;5.23;;;;;;;;;;5487922;26;20617;-84
2024/04/12 07:59:13;;;;;;;6.93;5.73;;;;;;;;;;5490495;26;20529;-83
2024/04/12 08:01:45;;;;;;;6.33;5.80;;;;;;;;;;5488877;26;20537;-83
2024/04/12 08:04:22;;;;;;;5.87;5.47;;;;;;;;;;5488634;26;21043;-83
2024/04/12 08:06:58;;;;;;;7.90;6.40;;;;;;;;;;5488863;26;20638;-82
2024/04/12 08:09:34;;;;;;;7.80;6.57;;;;;;;;;;5488949;26;21180;-83
2024/04/12 08:12:13;;;;;;;6.13;5.67;;;;;;;;;;5488465;26;20562;-83
2024/04/12 08:14:51;;;;;;;7.43;6.60;;;;;;;;;;5452157;26;20539;-84
2024/04/12 08:17:24;;;;;;;7.50;7.00;;;;;;;;;;5452141;26;20614;-84
2024/04/12 08:19:55;;;;;;;8.10;7.40;;;;;;;;;;5462350;26;20551;-83
2024/04/12 08:22:25;;;;;;;8.13;7.43;;;;;;;;;;5451957;26;21073;-84
2024/04/12 08:24:52;;;;;;;7.97;7.30;;;;;;;;;;5451723;26;21504;-84
2024/04/12 08:27:25;;;;;;;9.23;7.57;;;;;;;;;;5455544;26;20541;-82
2024/04/12 08:29:52;;;;;;;10.10;7.30;;;;;;;;;;5450150;26;20515;-82
2024/04/12 08:32:27;;;;;;;9.17;8.27;;;;;;;;;;5447184;26;20658;-82
2024/04/12 08:34:56;;;;;;;10.40;8.60;;;;;;;;;;5461015;26;20516;-82
2024/04/12 08:37:30;;;;;;;8.67;7.97;;;;;;;;;;5449574;26;21117;-84
2024/04/12 08:39:57;;;;;;;7.90;7.30;;;;;;;;;;5450148;26;20562;-81
2024/04/12 08:42:32;;;;;;;8.10;7.50;;;;;;;;;;5449970;26;20547;-82
2024/04/12 08:44:59;;;;;;;8.43;7.67;;;;;;;;;;5450086;26;20980;-83
2024/04/12 08:47:36;;;;;;;8.33;7.70;;;;;;;;;;5450576;26;20591;-82
2024/04/12 08:50:04;;;;;;;9.27;8.20;;;;;;;;;;5450577;26;20526;-81
2024/04/12 08:52:42;;;;;;;8.53;7.80;;;;;;;;;;5455673;26;21178;-82
2024/04/12 08:55:13;;;;;;;7.93;7.43;;;;;;;;;;5486615;26;20599;-83
2024/04/12 08:57:47;;;;;;;8.80;8.00;;;;;;;;;;5486939;26;20573;-83
2024/04/12 09:00:18;;;;;;;9.30;8.40;;;;;;;;;;5489256;26;20604;-83
2024/04/12 09:02:51;;;;;;;9.67;8.60;;;;;;;;;;5460067;26;21668;-83
2024/04/12 09:05:22;;;;;;;8.90;8.10;;;;;;;;;;5449571;26;20607;-84
2024/04/12 09:07:59;;;;;;;10.40;8.20;;;;;;;;;;5449380;26;20563;-81
2024/04/12 09:10:27;;;;;;;8.60;7.90;;;;;;;;;;5450017;26;20522;-81
2024/04/12 09:13:02;;;;;;;9.83;8.93;;;;;;;;;;5461386;26;20662;-79
2024/04/12 09:15:32;;;;;;;9.20;8.60;;;;;;;;;;5484116;26;20541;-82
2024/04/12 09:18:13;;;;;;;10.37;9.43;;;;;;;;;;5472154;26;20574;-82
2024/04/12 09:20:40;;;;;;;9.30;8.70;;;;;;;;;;5481031;26;20586;-81
2024/04/12 09:23:19;;;;;;;9.23;8.37;;;;;;;;;;5484854;26;20565;-83
2024/04/12 09:25:54;;;;;;;9.37;8.77;;;;;;;;;;5491841;26;20529;-83
2024/04/12 09:28:27;;;;;;;11.13;9.00;;;;;;;;;;5497101;26;21465;-83
2024/04/12 09:33:37;;;;;;;9.37;8.97;;;;;;;;;;5425634;26;21099;-82
2024/04/12 09:36:05;;;;;;;10.70;9.70;;;;;;;;;;5485440;26;20589;-80
2024/04/12 09:38:39;;;;;;;10.37;9.47;;;;;;;;;;5461869;26;20543;-81
2024/04/12 09:41:27;;;;;;;10.20;9.30;;;;;;;;;;5465627;26;21171;-82
2024/04/12 09:44:04;;;;;;;10.97;9.30;;;;;;;;;;5474577;26;20534;-82
2024/04/12 09:46:46;;;;;;;9.53;9.03;;;;;;;;;;5485867;26;20621;-80
2024/04/12 10:39:44;;;;;;;10.87;10.07;;;;;;;;;;5449985;26;20666;-82
2024/04/12 10:42:14;;;;;;;10.40;9.63;;;;;;;;;;5461757;26;20558;-82
2024/04/12 10:44:47;;;;;;;11.50;10.43;;;;;;;;;;5485111;26;20608;-84
2024/04/12 10:47:20;;;;;;;11.43;10.50;;;;;;;;;;5485772;26;20545;-82
2024/04/12 10:49:50;;;;;;;10.83;9.90;;;;;;;;;;5484636;26;20585;-82
2024/04/12 10:52:28;;;;;;;11.43;10.33;;;;;;;;;;5465013;26;20531;-80
2024/04/12 10:54:55;;;;;;;11.47;10.70;;;;;;;;;;5452215;26;20559;-80
2024/04/12 10:57:27;;;;;;;11.40;10.40;;;;;;;;;;5461118;26;20559;-80
2024/04/12 10:59:54;;;;;;;10.00;9.50;;;;;;;;;;5464785;26;20666;-80
2024/04/12 11:02:23;;;;;;;10.80;10.20;;;;;;;;;;5448173;26;20575;-81
2024/04/12 11:07:58;;;;;;;11.13;10.50;;;;;;;;;;5451842;26;21208;-84
2024/04/12 11:10:24;;;;;;;12.03;10.80;;;;;;;;;;5462324;26;20597;-79
2024/04/12 11:12:59;;;;;;;12.23;11.07;;;;;;;;;;5458810;26;20566;-79
2024/04/12 11:32:05;;;;;;;11.93;11.33;;;;;;;;;;5475671;26;20592;-79
2024/04/12 11:34:33;;;;;;;12.23;11.50;;;;;;;;;;5478432;26;20621;-80
2024/04/12 11:37:07;;;;;;;12.57;11.63;;;;;;;;;;5471084;26;20546;-80
2024/04/12 11:39:41;;;;;;;12.33;11.60;;;;;;;;;;5477068;26;21111;-81
2024/04/12 11:42:07;;;;;;;13.10;12.20;;;;;;;;;;5480138;26;20931;-80
2024/04/12 11:44:37;;;;;;;12.97;11.83;;;;;;;;;;5467587;26;20654;-81
2024/04/12 11:47:04;;;;;;;12.20;11.50;;;;;;;;;;5472700;26;20636;-81
2024/04/12 11:49:41;;;;;;;12.37;11.67;;;;;;;;;;5474412;26;20646;-80
2024/04/12 11:52:15;;;;;;;12.37;11.70;;;;;;;;;;5466117;26;20622;-80
2024/04/12 11:54:46;;;;;;;12.63;11.77;;;;;;;;;;5475009;26;20621;-81
2024/04/12 11:57:19;;;;;;;12.10;11.57;;;;;;;;;;5466124;26;20595;-83
2024/04/12 11:59:47;;;;;;;12.87;12.00;;;;;;;;;;5470567;26;20548;-86
2024/04/12 12:02:14;;;;;;;12.47;11.87;;;;;;;;;;5477657;26;20582;-84
2024/04/12 12:04:45;;;;;;;11.60;10.97;;;;;;;;;;5464954;26;20648;-84
2024/04/12 12:07:16;;;;;;;12.00;11.30;;;;;;;;;;5474842;26;20605;-84
2024/04/12 12:09:47;;;;;;;11.67;11.13;;;;;;;;;;5543680;20;20632;-67
2024/04/12 12:12:16;;;;;;;12.10;11.50;;;;;;;;;;5316143;26;20958;-65
2024/04/12 12:14:45;;;;;;;12.60;11.90;;;;;;;;;;5339855;26;20655;-67
2024/04/12 12:17:16;;;;;;;12.50;11.80;;;;;;;;;;5338454;26;20568;-68
2024/04/12 12:19:46;;;;;;;12.30;11.70;;;;;;;;;;5330925;26;20597;-68
2024/04/12 12:22:15;;;;;;;12.53;11.77;;;;;;;;;;5345209;26;20555;-68
2024/04/12 12:24:44;;;;;;;12.70;11.93;;;;;;;;;;5358251;26;20593;-68
2024/04/12 12:27:10;;;;;;;11.93;11.37;;;;;;;;;;5343694;26;20950;-66
2024/04/12 12:29:39;;;;;;;11.57;11.17;;;;;;;;;;5348131;26;20594;-69
2024/04/12 12:32:06;;;;;;;11.87;11.30;;;;;;;;;;5342611;26;20591;-67
2024/04/12 12:34:36;;;;;;;12.47;11.67;;;;;;;;;;5356726;26;20665;-68
2024/04/12 12:37:04;;;;;;;12.40;11.70;;;;;;;;;;5378960;26;20550;-67
2024/04/12 12:39:37;;;;;;;12.97;12.17;;;;;;;;;;5378673;26;20593;-67
2024/04/12 12:42:04;;;;;;;13.00;12.10;;;;;;;;;;5371934;26;20551;-67
2024/04/12 12:44:33;;;;;;;13.00;12.20;;;;;;;;;;5343705;26;20643;-69
2024/04/12 12:46:59;;;;;;;12.87;12.33;;;;;;;;;;5345850;26;21087;-68
2024/04/12 12:49:39;;;;;;;12.37;11.70;;;;;;;;;;5343540;26;20655;-64
2024/04/12 12:52:06;;;;;;;12.37;11.67;;;;;;;;;;5343778;26;20915;-67
2024/04/12 12:54:38;;;;;;;13.03;12.03;;;;;;;;;;5343885;26;20603;-67
2024/04/12 12:57:06;;;;;;;12.90;11.90;;;;;;;;;;5343185;26;20560;-68
2024/04/12 12:59:37;;;;;;;11.90;11.30;;;;;;;;;;5342101;26;20651;-67
2024/04/12 13:02:03;;;;;;;12.77;11.87;;;;;;;;;;5349301;26;20546;-67
2024/04/12 13:04:33;;;;;;;12.80;12.00;;;;;;;;;;5347727;26;20941;-67
2024/04/12 13:07:07;;;;;;;13.33;12.63;;;;;;;;;;5337518;26;20626;-67
2024/04/12 13:09:38;;;;;;;13.00;12.20;;;;;;;;;;5339679;26;20599;-65
2024/04/12 13:12:09;;;;;;;12.90;12.10;;;;;;;;;;5341039;26;20562;-67
2024/04/12 13:14:39;;;;;;;13.83;13.13;;;;;;;;;;5360235;26;20707;-67
2024/04/12 13:17:12;;;;;;;13.80;12.90;;;;;;;;;;5366051;26;20668;-67
2024/04/12 13:19:43;;;;;;;13.23;12.40;;;;;;;;;;5361941;26;20658;-67
2024/04/12 13:22:12;;;;;;;13.10;12.40;;;;;;;;;;5349673;26;20579;-67
2024/04/12 13:24:47;;;;;;;14.00;13.10;;;;;;;;;;5343533;26;20618;-66
2024/04/12 13:27:14;;;;;;;13.80;13.00;;;;;;;;;;5309168;26;20573;-66
2024/04/12 13:29:45;;;;;;;13.87;13.03;;;;;;;;;;5357660;26;21206;-67
2024/04/12 13:32:12;;;;;;;13.20;12.60;;;;;;;;;;5349227;26;20946;-66
2024/04/12 13:34:43;;;;;;;14.47;13.40;;;;;;;;;;5342509;26;20595;-67
2024/04/12 13:37:10;;;;;;;14.17;13.27;;;;;;;;;;5342696;26;20681;-70
2024/04/12 13:39:40;;;;;;;13.67;12.97;;;;;;;;;;5351090;26;20594;-66
2024/04/12 13:42:10;;;;;;;13.77;12.80;;;;;;;;;;5341848;26;20631;-67
2024/04/12 13:52:56;;;;;;;13.30;12.50;;;;;;;;;;5335249;26;20631;-67
2024/04/12 13:55:23;;;;;;;13.23;12.63;;;;;;;;;;5347775;26;20554;-67
2024/04/12 13:57:54;;;;;;;13.23;12.33;;;;;;;;;;5343329;26;20718;-67
2024/04/12 14:00:30;;;;;;;14.10;13.00;;;;;;;;;;5326942;26;20648;-67
2024/04/12 14:02:58;;;;;;;13.00;12.40;;;;;;;;;;5322164;26;20980;-67
2024/04/12 14:05:33;;;;;;;13.73;12.90;;;;;;;;;;5336841;26;20715;-67
2024/04/12 14:08:07;;;;;;;13.47;12.67;;;;;;;;;;5328652;26;20634;-67
2024/04/12 14:10:34;;;;;;;17.20;15.90;;;;;;;;;;5273732;27;20631;-67
2024/04/12 14:13:06;;;;;;;14.27;13.33;;;;;;;;;;5271897;27;20675;-67
2024/04/12 14:15:34;;;;;;;18.83;17.53;;;;;;;;;;5287426;27;20566;-65
2024/04/12 14:18:03;;;;;;;13.90;13.03;;;;;;;;;;5275395;27;20728;-64
2024/04/12 14:20:29;;;;;;;13.53;12.73;;;;;;;;;;5270772;26;20566;-65
2024/04/12 14:22:58;;;;;;;13.77;13.07;;;;;;;;;;5277978;27;20586;-64
2024/04/12 14:25:26;;;;;;;14.20;13.30;;;;;;;;;;5273108;27;20578;-64
2024/04/12 14:27:55;;;;;;;13.80;12.83;;;;;;;;;;5273583;27;20949;-65
2024/04/12 14:30:24;;;;;;;13.00;12.33;;;;;;;;;;5283188;26;20646;-64
2024/04/12 14:32:53;;;;;;;13.50;12.87;;;;;;;;;;5271971;26;20719;-65
2024/04/12 14:35:19;;;;;;;14.03;12.97;;;;;;;;;;5272661;27;21306;-64
2024/04/12 14:37:49;;;;;;;13.03;12.43;;;;;;;;;;5271939;27;20899;-64
2024/04/12 14:40:19;;;;;;;12.93;12.33;;;;;;;;;;5271497;27;20590;-64
2024/04/12 14:42:49;;;;;;;13.53;12.63;;;;;;;;;;5291319;27;20644;-65
2024/04/12 14:45:15;;;;;;;13.13;12.40;;;;;;;;;;5307225;26;20641;-66
2024/04/12 14:47:48;;;;;;;13.00;12.30;;;;;;;;;;5307392;26;20672;-64
2024/04/12 14:50:14;;;;;;;13.50;12.70;;;;;;;;;;5307604;26;20584;-65
2024/04/12 14:52:44;;;;;;;14.40;13.60;;;;;;;;;;5307519;26;20573;-64
2024/04/12 14:55:12;;;;;;;13.07;12.20;;;;;;;;;;5306885;26;20588;-64
2024/04/12 14:57:46;;;;;;;12.87;12.23;;;;;;;;;;5296908;26;20574;-65
2024/04/12 15:00:16;;;;;;;14.10;13.03;;;;;;;;;;5273321;27;20588;-65
2024/04/12 15:49:29;;;;;;;13.60;12.90;;;;;;;;;;5238903;27;20692;-64
2024/04/12 15:52:08;;;;;;;17.90;16.63;;;;;;;;;;5239056;27;20555;-64
2024/04/12 15:54:45;;;;;;;12.47;11.97;;;;;;;;;;5242269;27;20680;-64
2024/04/12 16:11:03;;;;;;;12.90;12.30;;;;;;;;;;5344168;26;20572;-65
2024/04/12 16:13:34;;;;;;;13.80;12.10;;;;;;;;;;5344217;26;20972;-64
2024/04/12 16:16:03;;;;;;;12.97;12.23;;;;;;;;;;5344733;26;20547;-66
2024/04/12 16:18:32;;;;;;;12.30;11.80;;;;;;;;;;5376726;26;20649;-65
2024/04/12 16:21:01;;;;;;;11.70;11.20;;;;;;;;;;5349040;26;20563;-65
2024/04/12 16:23:30;;;;;;;12.53;11.67;;;;;;;;;;5344111;26;21158;-65
2024/04/12 16:25:59;;;;;;;12.13;11.43;;;;;;;;;;5343936;26;21162;-65
2024/04/12 16:28:26;;;;;;;12.00;11.30;;;;;;;;;;5344041;26;20603;-64
2024/04/12 16:30:55;;;;;;;14.00;13.20;;;;;;;;;;5343937;26;20623;-64
2024/04/12 16:33:22;;;;;;;12.90;12.13;;;;;;;;;;5348106;26;20615;-64
2024/04/12 16:35:51;;;;;;;35.37;31.77;;;;;;;;;;5343710;26;21076;-65
2024/04/12 16:38:18;;;;;;;75.83;66.80;;;;;;;;;;5343647;26;20651;-65
2024/04/12 16:40:49;;;;;;;24.77;22.47;;;;;;;;;;5344090;26;20539;-64
2024/04/12 16:43:15;;;;;;;20.30;18.80;;;;;;;;;;5343900;26;20563;-65
2024/04/12 16:45:44;;;;;;;12.70;12.03;;;;;;;;;;5343698;26;20547;-65
2024/04/12 16:48:13;;;;;;;33.93;31.00;;;;;;;;;;5358714;26;20581;-65
2024/04/12 16:50:42;;;;;;;14.23;13.33;;;;;;;;;;5378726;26;21020;-64
2024/04/12 16:53:08;;;;;;;15.00;14.00;;;;;;;;;;5378538;26;20558;-64
2024/04/12 16:55:37;;;;;;;12.37;11.67;;;;;;;;;;5378495;26;20669;-64
2024/04/12 16:58:08;;;;;;;13.17;12.57;;;;;;;;;;5378272;26;20562;-64
2024/04/12 17:00:39;;;;;;;11.50;11.00;;;;;;;;;;5378771;26;21186;-66
2024/04/12 17:03:07;;;;;;;13.13;12.30;;;;;;;;;;5378495;26;20605;-63
2024/04/12 17:05:36;;;;;;;13.00;12.00;;;;;;;;;;5342318;26;20567;-64
2024/04/12 17:08:03;;;;;;;13.03;12.17;;;;;;;;;;5343427;26;20611;-63
2024/04/12 17:10:32;;;;;;;12.07;11.47;;;;;;;;;;5343504;26;20608;-65
2024/04/12 17:12:59;;;;;;;12.13;11.40;;;;;;;;;;5343034;26;20607;-65
2024/04/12 17:15:30;;;;;;;13.10;12.03;;;;;;;;;;5343028;26;20671;-63